createdAt,value
2018-12-20T00:02:04.208Z,5.90
2018-12-20T00:04:32.756Z,5.90
2018-12-20T00:07:01.185Z,5.90
2018-12-20T00:12:23.865Z,6.00
2018-12-20T00:14:52.419Z,6.00
2018-12-20T00:17:26.043Z,6.00
2018-12-20T00:19:54.653Z,6.10
2018-12-20T00:22:23.268Z,6.10
2018-12-20T00:24:51.584Z,6.10
2018-12-20T00:27:19.920Z,6.10
2018-12-20T00:29:48.249Z,6.10
2018-12-20T00:32:17.799Z,6.20
2018-12-20T00:34:48.147Z,6.20
2018-12-20T00:37:17.645Z,6.20
2018-12-20T00:39:55.470Z,6.20
2018-12-20T00:42:24.094Z,6.20
2018-12-20T00:44:52.642Z,6.20
2018-12-20T00:47:21.301Z,6.20
2018-12-20T00:49:49.883Z,6.20
2018-12-20T00:52:18.666Z,6.20
2018-12-20T00:54:53.384Z,6.20
2018-12-20T00:57:21.930Z,6.20
2018-12-20T00:59:50.422Z,6.20
2018-12-20T01:02:18.700Z,6.20
2018-12-20T01:04:48.280Z,6.20
2018-12-20T01:07:17.031Z,6.20
2018-12-20T01:09:45.677Z,6.30
2018-12-20T01:12:14.483Z,6.20
2018-12-20T01:14:45.479Z,6.20
2018-12-20T01:17:19.626Z,6.20
2018-12-20T01:19:48.650Z,6.30
2018-12-20T01:22:19.222Z,6.30
2018-12-20T01:24:47.725Z,6.30
2018-12-20T01:27:16.342Z,6.30
2018-12-20T01:29:44.896Z,6.30
2018-12-20T01:32:13.293Z,6.30
2018-12-20T01:34:41.837Z,6.20
2018-12-20T01:37:10.261Z,6.20
2018-12-20T01:45:24.949Z,6.20
2018-12-20T01:47:53.679Z,6.20
2018-12-20T01:50:22.078Z,6.20
2018-12-20T01:52:51.001Z,6.20
2018-12-20T01:55:19.713Z,6.20
2018-12-20T01:57:48.302Z,6.20
2018-12-20T02:00:16.932Z,6.20
2018-12-20T02:02:45.501Z,6.20
2018-12-20T02:05:13.875Z,6.20
2018-12-20T02:07:42.784Z,6.20
2018-12-20T02:12:46.013Z,6.30
2018-12-20T02:15:15.062Z,6.30
2018-12-20T02:17:44.313Z,6.30
2018-12-20T02:20:13.932Z,6.30
2018-12-20T02:25:16.934Z,6.30
2018-12-20T02:27:45.788Z,6.30
2018-12-20T02:30:15.080Z,6.30
2018-12-20T02:32:43.773Z,6.30
2018-12-20T02:35:12.764Z,6.30
2018-12-20T02:37:41.707Z,6.30
2018-12-20T02:40:10.495Z,6.40
2018-12-20T02:42:38.808Z,6.30
2018-12-20T02:45:10.994Z,6.40
2018-12-20T02:47:38.565Z,6.40
2018-12-20T02:50:08.027Z,6.40
2018-12-20T02:52:36.557Z,6.30
2018-12-20T02:55:06.444Z,6.40
2018-12-20T03:04:34.490Z,6.30
2018-12-20T03:07:02.976Z,6.30
2018-12-20T03:09:31.832Z,6.30
2018-12-20T03:12:00.665Z,6.30
2018-12-20T03:14:29.147Z,6.30
2018-12-20T03:16:58.544Z,6.40
2018-12-20T03:19:27.253Z,6.40
2018-12-20T03:21:56.139Z,6.40
2018-12-20T03:24:24.983Z,6.50
2018-12-20T03:26:53.495Z,6.50
2018-12-20T03:29:21.804Z,6.50
2018-12-20T03:31:50.507Z,6.50
2018-12-20T03:34:19.255Z,6.50
2018-12-20T03:36:47.849Z,6.50
2018-12-20T03:39:16.435Z,6.50
2018-12-20T03:47:34.711Z,6.60
2018-12-20T03:50:03.898Z,6.60
2018-12-20T03:52:33.492Z,6.60
2018-12-20T03:55:02.098Z,6.60
2018-12-20T03:57:34.366Z,6.60
2018-12-20T04:00:03.806Z,6.60
2018-12-20T04:02:32.376Z,6.60
2018-12-20T04:05:00.997Z,6.60
2018-12-20T04:07:30.027Z,6.60
2018-12-20T04:10:00.167Z,6.60
2018-12-20T04:12:28.878Z,6.70
2018-12-20T04:14:57.525Z,6.70
2018-12-20T04:17:35.375Z,6.70
2018-12-20T04:20:04.013Z,6.70
2018-12-20T04:22:32.699Z,6.70
2018-12-20T04:25:01.247Z,6.70
2018-12-20T04:27:29.570Z,6.70
2018-12-20T04:32:09.288Z,6.70
2018-12-20T04:34:38.260Z,6.70
2018-12-20T04:37:07.320Z,6.70
2018-12-20T04:39:36.923Z,6.70
2018-12-20T04:42:12.635Z,6.70
2018-12-20T04:44:41.186Z,6.70
2018-12-20T04:47:09.501Z,6.70
2018-12-20T04:49:38.899Z,6.70
2018-12-20T04:55:14.385Z,6.70
2018-12-20T04:57:43.485Z,6.70
2018-12-20T05:00:12.337Z,6.70
2018-12-20T05:02:41.760Z,6.70
2018-12-20T05:05:10.333Z,6.70
2018-12-20T05:07:39.051Z,6.70
2018-12-20T05:10:08.035Z,6.70
2018-12-20T05:12:36.522Z,6.70
2018-12-20T05:15:05.943Z,6.70
2018-12-20T05:17:36.218Z,6.70
2018-12-20T05:20:05.630Z,6.70
2018-12-20T05:22:34.286Z,6.70
2018-12-20T05:25:02.834Z,6.70
2018-12-20T05:27:34.181Z,6.70
2018-12-20T05:30:02.937Z,6.70
2018-12-20T05:32:31.422Z,6.70
2018-12-20T05:35:00.130Z,6.70
2018-12-20T05:37:38.520Z,6.70
2018-12-20T05:40:07.863Z,6.70
2018-12-20T05:42:36.660Z,6.70
2018-12-20T05:45:05.881Z,6.70
2018-12-20T05:47:35.067Z,6.70
2018-12-20T05:50:04.071Z,6.70
2018-12-20T05:55:26.013Z,6.80
2018-12-20T05:57:54.702Z,6.70
2018-12-20T06:00:23.362Z,6.80
2018-12-20T06:02:52.081Z,6.70
2018-12-20T06:05:20.635Z,6.80
2018-12-20T06:07:48.936Z,6.80
2018-12-20T06:10:17.462Z,6.80
2018-12-20T06:12:46.053Z,6.80
2018-12-20T06:15:14.908Z,6.80
2018-12-20T06:17:43.634Z,6.80
2018-12-20T06:20:11.991Z,6.80
2018-12-20T06:22:43.877Z,6.80
2018-12-20T06:25:12.869Z,6.90
2018-12-20T06:27:41.480Z,6.90
2018-12-20T06:30:10.815Z,6.90
2018-12-20T06:32:39.174Z,6.90
2018-12-20T06:35:07.882Z,6.90
2018-12-20T06:40:11.088Z,6.90
2018-12-20T06:42:40.313Z,6.90
2018-12-20T06:45:08.613Z,6.90
2018-12-20T06:47:40.290Z,6.90
2018-12-20T06:50:08.962Z,7.00
2018-12-20T06:52:37.297Z,6.90
2018-12-20T06:55:05.654Z,7.00
2018-12-20T06:57:34.198Z,7.00
2018-12-20T07:00:02.521Z,7.00
2018-12-20T07:05:23.370Z,7.00
2018-12-20T07:07:51.710Z,7.00
2018-12-20T07:10:20.559Z,7.00
2018-12-20T07:12:49.173Z,7.00
2018-12-20T07:15:18.203Z,7.00
2018-12-20T07:17:47.482Z,7.00
2018-12-20T07:20:16.079Z,7.00
2018-12-20T07:22:45.081Z,7.00
2018-12-20T07:25:13.770Z,7.00
2018-12-20T07:30:35.345Z,7.00
2018-12-20T07:33:03.691Z,7.00
2018-12-20T07:35:32.734Z,7.00
2018-12-20T07:38:04.073Z,7.00
2018-12-20T07:40:32.910Z,7.00
2018-12-20T07:43:01.299Z,7.00
2018-12-20T07:45:29.647Z,7.00
2018-12-20T07:47:58.026Z,7.00
2018-12-20T07:50:26.376Z,7.00
2018-12-20T07:52:54.926Z,7.00
2018-12-20T07:55:23.218Z,7.00
2018-12-20T07:57:51.978Z,7.10
2018-12-20T08:00:20.851Z,7.00
2018-12-20T08:02:49.222Z,7.00
2018-12-20T08:05:17.514Z,7.00
2018-12-20T08:07:46.414Z,7.10
2018-12-20T08:10:14.865Z,7.10
2018-12-20T08:12:43.527Z,7.10
2018-12-20T08:15:21.248Z,7.10
2018-12-20T08:17:50.022Z,7.10
2018-12-20T08:20:18.366Z,7.10
2018-12-20T08:22:46.722Z,7.10
2018-12-20T08:25:15.027Z,7.10
2018-12-20T08:27:43.629Z,7.20
2018-12-20T08:30:12.851Z,7.20
2018-12-20T08:32:41.230Z,7.10
2018-12-20T08:35:09.823Z,7.10
2018-12-20T08:37:39.305Z,7.10
2018-12-20T08:40:09.669Z,7.20
2018-12-20T08:42:47.501Z,7.20
2018-12-20T08:45:15.835Z,7.20
2018-12-20T08:47:44.749Z,7.10
2018-12-20T08:50:13.492Z,7.10
2018-12-20T08:52:41.865Z,7.10
2018-12-20T08:55:10.235Z,7.10
2018-12-20T08:57:38.601Z,7.20
2018-12-20T09:00:11.981Z,7.10
2018-12-20T09:02:41.024Z,7.10
2018-12-20T09:05:09.797Z,7.10
2018-12-20T09:07:42.225Z,7.20
2018-12-20T09:10:10.836Z,7.20
2018-12-20T09:12:39.143Z,7.20
2018-12-20T09:15:07.974Z,7.20
2018-12-20T09:17:36.698Z,7.20
2018-12-20T09:20:09.222Z,7.30
2018-12-20T09:22:38.897Z,7.30
2018-12-20T09:25:07.987Z,7.30
2018-12-20T09:27:36.404Z,7.30
2018-12-20T09:30:05.477Z,7.40
2018-12-20T09:32:33.809Z,7.40
2018-12-20T09:35:02.224Z,7.30
2018-12-20T09:37:30.543Z,7.40
2018-12-20T09:39:58.925Z,7.30
2018-12-20T09:42:27.503Z,7.30
2018-12-20T09:44:55.834Z,7.40
2018-12-20T09:47:29.486Z,7.40
2018-12-20T09:49:58.021Z,7.40
2018-12-20T09:52:26.348Z,7.40
2018-12-20T09:54:57.677Z,7.40
2018-12-20T09:57:26.040Z,7.40
2018-12-20T09:59:54.692Z,7.40
2018-12-20T10:02:23.040Z,7.40
2018-12-20T10:04:51.382Z,7.50
2018-12-20T10:07:19.698Z,7.50
2018-12-20T10:09:48.029Z,7.50
2018-12-20T10:18:04.592Z,7.50
2018-12-20T10:20:32.870Z,7.50
2018-12-20T10:23:01.567Z,7.60
2018-12-20T10:25:29.899Z,7.60
2018-12-20T10:28:07.426Z,7.60
2018-12-20T10:30:36.224Z,7.60
2018-12-20T10:33:04.945Z,7.60
2018-12-20T10:35:33.276Z,7.60
2018-12-20T10:42:17.873Z,7.60
2018-12-20T10:44:46.508Z,7.60
2018-12-20T10:47:28.589Z,7.60
2018-12-20T10:49:52.042Z,7.60
2018-12-20T10:52:20.378Z,7.70
2018-12-20T10:54:49.327Z,7.70
2018-12-20T10:57:17.953Z,7.80
2018-12-20T10:59:46.577Z,7.80
2018-12-20T11:05:15.144Z,7.90
2018-12-20T11:07:49.517Z,7.90
2018-12-20T11:10:24.862Z,7.90
2018-12-20T11:12:56.529Z,8.00
2018-12-20T11:15:30.934Z,8.00
2018-12-20T11:17:59.222Z,8.00
2018-12-20T11:20:28.005Z,8.00
2018-12-20T11:22:56.642Z,8.00
2018-12-20T11:25:25.262Z,8.00
2018-12-20T11:27:54.712Z,8.00
2018-12-20T11:30:23.273Z,8.00
2018-12-20T11:32:51.669Z,7.90
2018-12-20T11:35:19.967Z,7.90
2018-12-20T11:37:48.288Z,7.70
2018-12-20T11:40:16.624Z,7.70
2018-12-20T11:42:45.192Z,7.60
2018-12-20T11:51:00.562Z,7.50
2018-12-20T11:53:28.882Z,7.50
2018-12-20T11:55:57.214Z,7.50
2018-12-20T11:58:25.818Z,7.50
2018-12-20T12:00:54.345Z,7.50
2018-12-20T12:03:23.196Z,7.50
2018-12-20T12:05:51.750Z,7.50
2018-12-20T12:08:20.546Z,7.40
2018-12-20T12:10:48.947Z,7.50
2018-12-20T12:13:19.094Z,7.40
2018-12-20T12:15:47.687Z,7.40
2018-12-20T12:18:16.059Z,7.30
2018-12-20T12:20:44.758Z,7.30
2018-12-20T12:23:13.110Z,7.30
2018-12-20T12:25:41.503Z,7.20
2018-12-20T12:28:10.555Z,7.20
2018-12-20T12:30:39.246Z,7.20
2018-12-20T12:33:07.589Z,7.30
2018-12-20T12:35:35.926Z,7.30
2018-12-20T12:38:04.977Z,7.30
2018-12-20T12:40:34.413Z,7.40
2018-12-20T12:43:03.202Z,7.40
2018-12-20T12:45:32.004Z,7.40
2018-12-20T12:48:03.700Z,7.50
2018-12-20T12:50:35.138Z,7.50
2018-12-20T12:53:03.516Z,7.50
2018-12-20T12:55:32.324Z,7.60
2018-12-20T12:58:04.706Z,7.60
2018-12-20T13:00:32.085Z,7.70
2018-12-20T13:03:04.237Z,7.70
2018-12-20T13:05:33.032Z,7.70
2018-12-20T13:08:01.770Z,7.70
2018-12-20T13:10:30.811Z,7.70
2018-12-20T13:15:56.043Z,7.70
2018-12-20T13:18:25.196Z,7.70
2018-12-20T13:20:53.623Z,7.70
2018-12-20T13:23:22.297Z,7.70
2018-12-20T13:25:50.618Z,7.70
2018-12-20T13:28:18.960Z,7.80
2018-12-20T13:30:47.927Z,7.80
2018-12-20T13:33:16.292Z,7.80
2018-12-20T13:35:44.617Z,7.70
2018-12-20T13:38:14.870Z,7.80
2018-12-20T13:40:44.137Z,7.80
2018-12-20T13:43:12.497Z,7.70
2018-12-20T13:45:41.107Z,7.70
2018-12-20T13:48:22.334Z,7.70
2018-12-20T13:50:50.400Z,7.80
2018-12-20T13:53:19.408Z,7.80
2018-12-20T13:59:03.478Z,7.80
2018-12-20T14:01:32.590Z,7.90
2018-12-20T14:04:00.860Z,7.90
2018-12-20T14:06:29.723Z,7.90
2018-12-20T14:08:58.552Z,8.00
2018-12-20T14:11:26.913Z,8.00
2018-12-20T14:13:55.881Z,8.00
2018-12-20T14:16:24.227Z,8.10
2018-12-20T14:18:52.566Z,8.10
2018-12-20T14:21:25.088Z,8.10
2018-12-20T14:23:53.405Z,8.10
2018-12-20T14:26:30.977Z,8.10
2018-12-20T14:28:59.316Z,8.10
2018-12-20T14:31:27.631Z,8.10
2018-12-20T14:33:55.984Z,8.10
2018-12-20T14:36:25.028Z,8.10
2018-12-20T14:38:53.917Z,8.10
2018-12-20T14:44:14.155Z,8.10
2018-12-20T14:46:42.512Z,8.10
2018-12-20T14:49:11.628Z,8.10
2018-12-20T14:51:39.982Z,8.10
2018-12-20T14:54:08.330Z,8.00
2018-12-20T14:56:36.909Z,8.10
2018-12-20T14:59:05.509Z,8.10
2018-12-20T15:01:33.793Z,8.10
2018-12-20T15:06:55.080Z,8.10
2018-12-20T15:09:23.446Z,8.10
2018-12-20T15:11:52.006Z,8.10
2018-12-20T15:14:20.588Z,8.10
2018-12-20T15:16:49.253Z,8.10
2018-12-20T15:19:17.642Z,8.10
2018-12-20T15:21:46.241Z,8.10
2018-12-20T15:24:14.886Z,8.10
2018-12-20T15:29:39.930Z,8.10
2018-12-20T15:32:08.539Z,8.10
2018-12-20T15:34:36.937Z,8.10
2018-12-20T15:37:05.258Z,8.10
2018-12-20T15:39:33.632Z,8.10
2018-12-20T15:42:08.146Z,8.10
2018-12-20T15:44:37.380Z,8.10
2018-12-20T15:47:05.735Z,8.10
2018-12-20T15:49:41.760Z,8.10
2018-12-20T15:52:11.328Z,8.10
2018-12-20T15:54:40.033Z,8.20
2018-12-20T15:57:08.406Z,8.10
2018-12-20T15:59:38.493Z,8.20
2018-12-20T16:02:07.167Z,8.20
2018-12-20T16:04:36.059Z,8.20
2018-12-20T16:07:04.922Z,8.20
2018-12-20T16:09:33.273Z,8.20
2018-12-20T16:12:01.562Z,8.20
2018-12-20T16:14:34.578Z,8.20
2018-12-20T16:17:02.968Z,8.20
2018-12-20T16:19:31.534Z,8.20
2018-12-20T16:21:59.908Z,8.10
2018-12-20T16:24:28.465Z,8.10
2018-12-20T16:26:56.792Z,8.10
2018-12-20T16:29:28.814Z,8.10
2018-12-20T16:31:58.178Z,8.10
2018-12-20T16:34:26.823Z,8.10
2018-12-20T16:36:55.507Z,8.10
2018-12-20T16:39:24.071Z,8.10
2018-12-20T16:41:52.366Z,8.00
2018-12-20T16:44:21.016Z,8.00
2018-12-20T16:46:49.458Z,7.90
2018-12-20T16:49:17.950Z,7.90
2018-12-20T16:51:46.282Z,7.90
2018-12-20T16:54:15.306Z,7.80
2018-12-20T17:02:30.630Z,7.70
2018-12-20T17:04:59.061Z,7.70
2018-12-20T17:07:27.810Z,7.70
2018-12-20T17:09:56.145Z,7.70
2018-12-20T17:12:24.765Z,7.70
2018-12-20T17:14:53.086Z,7.70
2018-12-20T17:17:21.429Z,7.70
2018-12-20T17:19:50.280Z,7.80
2018-12-20T17:25:22.174Z,7.80
2018-12-20T17:27:50.500Z,7.70
2018-12-20T17:30:19.045Z,7.70
2018-12-20T17:32:48.393Z,7.70
2018-12-20T17:35:16.783Z,7.60
2018-12-20T17:37:45.147Z,7.60
2018-12-20T17:40:13.759Z,7.60
2018-12-20T17:42:42.710Z,7.60
2018-12-20T17:45:11.525Z,7.60
2018-12-20T17:47:39.860Z,7.60
2018-12-20T17:50:09.259Z,7.70
2018-12-20T17:52:37.598Z,7.60
2018-12-20T17:55:07.105Z,7.60
2018-12-20T17:57:35.698Z,7.60
2018-12-20T18:00:05.196Z,7.70
2018-12-20T18:02:33.532Z,7.70
2018-12-20T18:07:48.193Z,7.70
2018-12-20T18:10:17.816Z,7.70
2018-12-20T18:12:46.191Z,7.70
2018-12-20T18:15:14.889Z,7.80
2018-12-20T18:17:44.427Z,7.80
2018-12-20T18:20:12.999Z,7.90
2018-12-20T18:22:41.396Z,7.90
2018-12-20T18:25:10.211Z,7.90
2018-12-20T18:27:38.606Z,7.90
2018-12-20T18:30:10.442Z,7.90
2018-12-20T18:32:39.013Z,7.90
2018-12-20T18:35:08.425Z,8.00
2018-12-20T18:37:38.545Z,8.00
2018-12-20T18:40:08.123Z,7.90
2018-12-20T18:42:36.899Z,7.90
2018-12-20T18:45:06.749Z,7.90
2018-12-20T18:47:42.211Z,7.90
2018-12-20T18:50:12.252Z,7.90
2018-12-20T18:52:41.780Z,7.90
2018-12-20T18:55:10.486Z,7.90
2018-12-20T18:57:39.157Z,7.90
2018-12-20T19:00:09.670Z,7.90
2018-12-20T19:02:38.091Z,7.90
2018-12-20T19:05:07.929Z,7.90
2018-12-20T19:07:36.320Z,7.90
2018-12-20T19:10:06.251Z,7.90
2018-12-20T19:12:34.641Z,7.90
2018-12-20T19:15:02.944Z,7.90
2018-12-20T19:17:31.568Z,7.90
2018-12-20T19:20:00.222Z,7.90
2018-12-20T19:22:28.620Z,7.90
2018-12-20T19:24:57.903Z,7.90
2018-12-20T19:27:26.274Z,7.90
2018-12-20T19:29:54.617Z,7.90
2018-12-20T19:32:23.817Z,7.90
2018-12-20T19:34:52.741Z,7.90
2018-12-20T19:37:21.156Z,7.90
2018-12-20T19:39:55.155Z,7.90
2018-12-20T19:42:23.816Z,7.90
2018-12-20T19:44:52.253Z,7.90
2018-12-20T19:53:10.470Z,7.90
2018-12-20T19:55:38.807Z,7.90
2018-12-20T19:58:07.385Z,7.90
2018-12-20T20:00:35.745Z,8.00
2018-12-20T20:03:04.124Z,7.90
2018-12-20T20:05:32.838Z,8.00
2018-12-20T20:08:01.566Z,8.00
2018-12-20T20:10:30.224Z,8.00
2018-12-20T20:12:59.278Z,8.00
2018-12-20T20:15:27.758Z,8.00
2018-12-20T20:18:05.855Z,8.00
2018-12-20T20:20:34.519Z,8.00
2018-12-20T20:23:02.891Z,8.00
2018-12-20T20:25:31.362Z,8.00
2018-12-20T20:27:59.693Z,7.90
2018-12-20T20:30:29.470Z,7.90
2018-12-20T20:32:58.014Z,8.00
2018-12-20T20:35:26.784Z,8.00
2018-12-20T20:37:55.335Z,8.00
2018-12-20T20:40:24.695Z,8.00
2018-12-20T20:42:56.774Z,8.00
2018-12-20T20:45:34.789Z,8.00
2018-12-20T20:48:03.265Z,8.00
2018-12-20T20:56:17.656Z,8.00
2018-12-20T20:58:46.047Z,8.10
2018-12-20T21:01:15.472Z,8.00
2018-12-20T21:06:18.907Z,8.00
2018-12-20T21:08:47.244Z,8.00
2018-12-20T21:11:15.715Z,8.00
2018-12-20T21:13:44.003Z,8.00
2018-12-20T21:16:12.624Z,8.10
2018-12-20T21:21:37.636Z,8.10
2018-12-20T21:24:06.723Z,8.10
2018-12-20T21:26:44.608Z,8.10
2018-12-20T21:29:12.910Z,8.10
2018-12-20T21:31:41.312Z,8.10
2018-12-20T21:34:10.219Z,8.10
2018-12-20T21:36:38.694Z,8.00
2018-12-20T21:39:07.818Z,8.00
2018-12-20T21:44:35.149Z,8.00
2018-12-20T21:47:05.938Z,8.00
2018-12-20T21:49:34.524Z,8.00
2018-12-20T21:52:03.120Z,8.00
2018-12-20T21:54:38.095Z,8.10
2018-12-20T21:57:06.622Z,8.10
2018-12-20T21:59:35.218Z,8.10
2018-12-20T22:02:04.016Z,8.10
2018-12-20T22:04:33.285Z,8.10
2018-12-20T22:07:02.419Z,8.10
2018-12-20T22:09:31.311Z,8.10
2018-12-20T22:11:59.843Z,8.10
2018-12-20T22:14:28.273Z,8.10
2018-12-20T22:17:00.498Z,8.10
2018-12-20T22:19:28.983Z,8.10
2018-12-20T22:24:50.604Z,8.10
2018-12-20T22:27:19.723Z,8.10
2018-12-20T22:29:48.709Z,8.10
2018-12-20T22:32:18.214Z,8.20
2018-12-20T22:34:46.855Z,8.20
2018-12-20T22:37:15.448Z,8.20
2018-12-20T22:39:43.797Z,8.20
2018-12-20T22:42:12.587Z,8.20
2018-12-20T22:44:44.045Z,8.20
2018-12-20T22:47:16.073Z,8.20
2018-12-20T22:49:44.387Z,8.20
2018-12-20T22:52:12.718Z,8.20
2018-12-20T22:54:45.217Z,8.20
2018-12-20T22:57:13.523Z,8.20
2018-12-20T22:59:41.914Z,8.10
2018-12-20T23:02:17.891Z,8.20
2018-12-20T23:04:47.008Z,8.20
2018-12-20T23:07:15.993Z,8.20
2018-12-20T23:09:44.378Z,8.10
2018-12-20T23:12:13.115Z,8.10
2018-12-20T23:14:41.457Z,8.10
2018-12-20T23:17:10.074Z,8.10
2018-12-20T23:19:38.400Z,8.10
2018-12-20T23:22:06.736Z,8.00
2018-12-20T23:24:35.887Z,8.10
2018-12-20T23:29:56.840Z,8.10
2018-12-20T23:32:25.399Z,8.00
2018-12-20T23:34:57.159Z,8.00
2018-12-20T23:37:25.499Z,8.00
2018-12-20T23:39:53.827Z,7.90
2018-12-20T23:42:22.902Z,7.90
2018-12-20T23:44:51.692Z,7.90
2018-12-20T23:47:19.998Z,7.90
2018-12-20T23:49:48.290Z,7.90
2018-12-20T23:52:17.023Z,7.90
2018-12-20T23:54:45.562Z,7.90
2018-12-20T23:57:14.822Z,7.90
2018-12-20T23:59:43.139Z,7.90
